Time;durP1;ratioP1;P1;durP2;ratioP2;P2;SDS_P1;SDS_P2;PMS_P1;PMS_P2;Temp;Humidity;BMP_temperature;BMP_pressure;BME280_temperature;BME280_humidity;BME280_pressure;Samples;Min_cycle;Max_cycle;Signal;HPM_P1;HPM_P2
2023/07/02 00:02:05;;;;;;;7.70;4.33;;;;;;;21.65;84.08;98937.88;6335162;28;20055;-71
2023/07/02 00:05:06;;;;;;;4.43;4.03;;;;;;;21.49;85.48;98946.13;6329484;28;20052;-69
2023/07/02 00:08:07;;;;;;;5.95;4.35;;;;;;;21.40;86.86;98949.91;6347306;28;20097;-70
2023/07/02 00:11:12;;;;;;;6.27;4.63;;;;;;;21.39;86.30;98954.34;6347549;28;20362;-71
2023/07/02 00:14:14;;;;;;;6.40;4.38;;;;;;;21.28;88.49;98954.88;6347413;28;20059;-69
2023/07/02 00:17:14;;;;;;;8.57;4.55;;;;;;;21.19;88.50;98951.53;6347203;28;20051;-69
2023/07/02 00:20:16;;;;;;;6.40;4.80;;;;;;;21.21;88.89;98952.16;6347305;28;20058;-69
2023/07/02 00:23:17;;;;;;;7.55;5.00;;;;;;;21.20;89.08;98949.69;6346938;28;20418;-69
2023/07/02 00:26:18;;;;;;;7.27;4.47;;;;;;;21.28;88.40;98954.88;6329252;28;20052;-71
2023/07/02 00:29:19;;;;;;;7.97;5.37;;;;;;;21.31;88.55;98950.03;6329028;28;20047;-72
2023/07/02 00:32:20;;;;;;;7.17;5.47;;;;;;;21.25;89.58;98955.25;6329393;28;20049;-71
2023/07/02 00:35:20;;;;;;;8.73;5.23;;;;;;;21.18;90.08;98947.22;6328807;28;20051;-72
2023/07/02 00:38:22;;;;;;;6.13;5.03;;;;;;;21.16;90.96;98953.75;6328741;28;20499;-71
2023/07/02 00:41:23;;;;;;;6.47;5.28;;;;;;;21.17;90.80;98958.88;6346720;28;20548;-69
2023/07/02 00:44:24;;;;;;;7.88;5.38;;;;;;;21.19;91.60;98956.00;6346717;28;20423;-71
2023/07/02 00:47:25;;;;;;;8.90;4.97;;;;;;;21.07;91.96;98953.03;6329324;28;20051;-71
2023/07/02 00:50:27;;;;;;;6.87;5.03;;;;;;;21.09;92.63;98949.19;6347145;28;20047;-71
2023/07/02 00:53:27;;;;;;;6.28;4.90;;;;;;;21.25;91.84;98941.97;6328846;28;20048;-71
2023/07/02 00:56:28;;;;;;;7.90;5.07;;;;;;;21.22;91.64;98945.84;6328714;28;20047;-71
2023/07/02 00:59:30;;;;;;;6.97;5.20;;;;;;;21.22;91.72;98948.50;6328925;28;20513;-71
2023/07/02 01:02:31;;;;;;;;;;;;;;;21.27;91.50;98953.22;6346818;28;20158;-70
2023/07/02 01:05:37;;;;;;;6.85;4.93;;;;;;;21.28;91.50;98961.00;6328521;28;19926;-72
2023/07/02 01:08:38;;;;;;;5.63;4.90;;;;;;;21.26;90.86;98939.16;6328444;28;20089;-71
2023/07/02 01:11:43;;;;;;;5.77;4.87;;;;;;;21.30;90.92;98945.72;6328451;28;20049;-71
2023/07/02 01:14:51;;;;;;;6.28;5.00;;;;;;;21.26;91.95;98955.06;6333031;28;20116;-71
2023/07/02 01:17:53;;;;;;;8.55;5.18;;;;;;;21.21;91.77;98946.03;6351488;28;20051;-71
2023/07/02 01:20:57;;;;;;;9.48;5.43;;;;;;;21.14;92.60;98951.25;6351701;28;20544;-72
2023/07/02 01:24:03;;;;;;;6.97;5.68;;;;;;;21.21;93.64;98954.81;6351437;28;20066;-71
2023/07/02 01:27:06;;;;;;;7.95;5.80;;;;;;;21.20;93.00;98966.44;6333360;28;20411;-71
2023/07/02 01:30:09;;;;;;;8.60;6.15;;;;;;;21.21;93.34;98957.47;6351922;28;20104;-71
2023/07/02 01:33:10;;;;;;;6.60;5.38;;;;;;;21.04;94.12;98948.91;6351213;28;20457;-71
2023/07/02 01:36:12;;;;;;;7.90;6.17;;;;;;;21.06;94.93;98949.53;6333227;28;20054;-70
2023/07/02 01:39:12;;;;;;;;;;;;;;;21.01;95.07;98951.97;6351581;28;20047;-71
2023/07/02 01:42:18;;;;;;;8.15;5.38;;;;;;;21.03;95.83;98955.25;6351152;28;19919;-71
2023/07/02 01:45:19;;;;;;;8.88;5.78;;;;;;;21.01;96.74;98954.59;6351220;28;20054;-71
2023/07/02 01:48:20;;;;;;;9.97;6.00;;;;;;;20.95;96.25;98944.75;6332821;28;20409;-71
2023/07/02 01:51:20;;;;;;;6.67;5.43;;;;;;;20.91;97.02;98949.59;6333077;28;20157;-71
2023/07/02 01:54:23;;;;;;;8.70;5.73;;;;;;;20.82;98.99;98953.38;6350856;28;20043;-72
2023/07/02 01:57:24;;;;;;;9.00;5.75;;;;;;;20.76;100.00;98948.00;6332656;28;20457;-69
2023/07/02 02:00:24;;;;;;;11.17;6.00;;;;;;;20.80;99.59;98943.97;6332374;28;20047;-70
2023/07/02 02:03:25;;;;;;;11.13;5.70;;;;;;;20.87;99.21;98945.69;6332141;28;20060;-69
2023/07/02 02:06:26;;;;;;;8.20;5.23;;;;;;;20.94;98.23;98945.78;6350208;28;20131;-70
2023/07/02 02:09:28;;;;;;;6.90;5.67;;;;;;;20.90;98.70;98952.47;6332090;28;20058;-70
2023/07/02 02:12:30;;;;;;;;;;;;;;;20.81;99.64;98953.56;6350671;28;20098;-70
2023/07/02 02:15:30;;;;;;;6.97;5.43;;;;;;;20.90;98.79;98953.28;6350365;28;19942;-71
2023/07/02 02:18:31;;;;;;;8.63;6.07;;;;;;;20.96;99.41;98956.16;6332093;28;20047;-69
2023/07/02 02:21:32;;;;;;;8.30;6.10;;;;;;;20.87;99.25;98953.63;6349959;28;20096;-70
2023/07/02 02:24:33;;;;;;;7.10;6.03;;;;;;;20.78;100.00;98953.94;6349715;28;20049;-69
2023/07/02 02:27:34;;;;;;;9.03;6.20;;;;;;;20.80;100.00;98958.06;6331791;28;20047;-71
2023/07/02 02:30:34;;;;;;;9.90;6.23;;;;;;;20.79;100.00;98961.69;6331777;28;20059;-69
2023/07/02 02:33:35;;;;;;;8.53;6.27;;;;;;;20.72;100.00;98971.41;6349959;28;20047;-72
2023/07/02 02:36:36;;;;;;;8.63;6.80;;;;;;;20.71;100.00;98967.94;6349749;28;20169;-69
2023/07/02 02:39:37;;;;;;;8.27;6.20;;;;;;;20.81;100.00;98962.31;6331690;28;20410;-69
2023/07/02 02:42:39;;;;;;;9.97;5.80;;;;;;;20.89;100.00;98972.81;6331300;28;20517;-70
2023/07/02 02:45:39;;;;;;;8.50;6.72;;;;;;;20.92;100.00;98972.47;6331312;28;20058;-69
2023/07/02 02:48:40;;;;;;;7.33;6.43;;;;;;;20.89;100.00;98972.00;6331313;28;20079;-72
2023/07/02 02:51:41;;;;;;;8.10;6.50;;;;;;;20.89;100.00;98974.66;6331335;28;20048;-70
2023/07/02 02:54:41;;;;;;;7.73;6.10;;;;;;;20.89;100.00;98972.00;6331381;28;20047;-72
2023/07/02 02:57:43;;;;;;;7.47;6.20;;;;;;;20.96;100.00;98972.94;6331349;28;20060;-71
2023/07/02 03:00:45;;;;;;;8.87;6.87;;;;;;;20.94;100.00;98972.28;6331163;28;20084;-72
2023/07/02 03:03:46;;;;;;;10.52;6.63;;;;;;;20.87;100.00;98966.06;6349279;28;20093;-71
2023/07/02 03:06:46;;;;;;;7.20;5.60;;;;;;;20.89;100.00;98977.31;6331323;28;20051;-72
2023/07/02 03:09:47;;;;;;;8.20;6.73;;;;;;;20.96;100.00;98972.94;6330766;28;20452;-70
2023/07/02 03:12:48;;;;;;;9.20;6.50;;;;;;;21.04;100.00;98978.09;6348919;28;20549;-70
2023/07/02 03:15:49;;;;;;;8.03;6.20;;;;;;;21.00;100.00;98970.69;6348875;28;20056;-72
2023/07/02 03:18:49;;;;;;;11.43;6.40;;;;;;;20.97;100.00;98965.78;6348866;28;20177;-70
2023/07/02 03:21:50;;;;;;;9.63;5.83;;;;;;;21.02;100.00;98961.53;6330339;28;20050;-70
2023/07/02 03:24:51;;;;;;;7.67;6.20;;;;;;;21.00;100.00;98960.94;6348302;28;20059;-70
2023/07/02 03:27:52;;;;;;;8.80;6.00;;;;;;;21.06;100.00;98959.34;6348360;28;20050;-70
2023/07/02 03:30:55;;;;;;;6.93;6.03;;;;;;;21.09;100.00;98957.13;6330269;28;20101;-71
2023/07/02 03:33:55;;;;;;;12.27;6.25;;;;;;;21.10;100.00;98961.41;6348590;28;20043;-72
2023/07/02 03:36:56;;;;;;;7.77;6.13;;;;;;;20.97;100.00;98957.84;6329430;28;20085;-69
2023/07/02 03:39:58;;;;;;;8.93;6.63;;;;;;;20.95;100.00;98959.84;6330444;28;20085;-70
2023/07/02 03:42:59;;;;;;;9.55;6.40;;;;;;;20.90;100.00;98961.22;6329818;28;20100;-69
2023/07/02 03:46:00;;;;;;;8.47;6.57;;;;;;;20.92;100.00;98961.06;6347846;28;20043;-70
2023/07/02 03:49:01;;;;;;;7.77;5.77;;;;;;;20.93;100.00;98962.69;6330071;28;20058;-69
2023/07/02 03:52:02;;;;;;;9.98;6.78;;;;;;;21.02;100.00;98960.72;6347763;28;20050;-70
2023/07/02 03:55:03;;;;;;;10.07;7.10;;;;;;;21.06;100.00;98965.47;6347583;28;20426;-70
2023/07/02 03:58:04;;;;;;;9.90;6.93;;;;;;;21.01;100.00;98959.91;6347789;28;20104;-69
2023/07/02 04:01:04;;;;;;;8.80;6.73;;;;;;;21.03;100.00;98967.69;6329427;28;20063;-72
2023/07/02 04:04:05;;;;;;;9.93;6.93;;;;;;;21.06;100.00;98965.47;6329727;28;20052;-72
2023/07/02 04:07:06;;;;;;;11.67;6.83;;;;;;;21.07;100.00;98972.41;6347929;28;20122;-70
2023/07/02 04:10:07;;;;;;;7.87;6.37;;;;;;;21.08;100.00;98975.88;6347669;28;20066;-72
2023/07/02 04:13:09;;;;;;;8.82;6.95;;;;;;;21.05;100.00;98974.44;6347417;28;20044;-69
2023/07/02 04:16:09;;;;;;;9.67;6.63;;;;;;;21.12;100.00;98977.97;6347498;28;20483;-71
2023/07/02 04:19:10;;;;;;;8.10;6.40;;;;;;;21.05;100.00;98974.44;6347785;28;20051;-72
2023/07/02 04:22:11;;;;;;;12.70;6.50;;;;;;;21.11;100.00;98983.47;6347860;28;20047;-70
2023/07/02 04:25:15;;;;;;;9.43;6.67;;;;;;;21.14;100.00;98991.06;6347465;28;20107;-69
2023/07/02 04:28:15;;;;;;;8.02;6.50;;;;;;;21.16;100.00;98986.38;6347501;28;20100;-69
2023/07/02 04:31:16;;;;;;;10.20;6.63;;;;;;;21.34;100.00;99002.69;6329301;28;20044;-69
2023/07/02 04:34:17;;;;;;;9.00;7.07;;;;;;;21.33;100.00;99000.22;6347228;28;20204;-69
2023/07/02 04:37:18;;;;;;;9.30;7.13;;;;;;;21.32;100.00;99010.00;6347012;28;20056;-72
2023/07/02 04:40:18;;;;;;;8.67;6.53;;;;;;;21.42;100.00;99008.91;6329697;28;20044;-72
2023/07/02 04:43:19;;;;;;;8.80;6.53;;;;;;;21.61;99.77;99008.28;6347258;28;20047;-69
2023/07/02 04:46:20;;;;;;;8.07;5.87;;;;;;;21.54;100.00;99010.06;6328735;28;20057;-72
2023/07/02 04:49:20;;;;;;;7.30;6.07;;;;;;;21.52;100.00;99002.28;6347277;28;20087;-69
2023/07/02 04:52:21;;;;;;;7.67;6.10;;;;;;;21.62;100.00;99001.13;6328696;28;20054;-69
2023/07/02 04:55:22;;;;;;;8.57;6.30;;;;;;;21.73;100.00;99004.09;6346879;28;20104;-69
2023/07/02 04:58:23;;;;;;;7.73;5.57;;;;;;;21.78;100.00;99008.03;6328649;28;20078;-72
2023/07/02 05:01:24;;;;;;;10.50;7.00;;;;;;;21.71;100.00;99005.31;6328798;28;20055;-72
2023/07/02 05:04:24;;;;;;;10.63;6.70;;;;;;;21.69;99.71;99005.50;6347109;28;20468;-72
2023/07/02 05:07:25;;;;;;;8.53;6.43;;;;;;;21.78;99.90;99011.50;6328477;28;20055;-70
2023/07/02 05:10:26;;;;;;;9.17;6.33;;;;;;;22.01;98.49;99005.97;6328881;28;20138;-72
2023/07/02 05:13:27;;;;;;;17.27;6.90;;;;;;;21.91;98.62;99014.28;6329106;28;20043;-72
2023/07/02 05:16:27;;;;;;;15.13;6.37;;;;;;;21.96;97.90;99016.34;6328574;28;20047;-72
2023/07/02 05:19:28;;;;;;;8.73;6.30;;;;;;;21.97;97.71;99019.81;6344407;28;20044;-70
2023/07/02 05:22:29;;;;;;;12.73;6.57;;;;;;;21.91;99.02;99019.56;6333285;28;20381;-70
2023/07/02 05:25:29;;;;;;;10.60;6.37;;;;;;;21.91;98.34;99016.09;6340402;28;20066;-70
2023/07/02 05:28:30;;;;;;;8.80;5.93;;;;;;;22.01;97.37;99027.22;6328342;28;20178;-72
2023/07/02 05:31:31;;;;;;;7.57;6.23;;;;;;;22.19;96.63;99023.25;6346064;28;20403;-71
2023/07/02 05:34:32;;;;;;;9.60;6.70;;;;;;;22.24;96.47;99021.69;6328078;28;20048;-70
2023/07/02 05:37:35;;;;;;;7.37;5.77;;;;;;;22.31;97.57;99019.88;6346155;28;20101;-71
2023/07/02 05:40:35;;;;;;;8.45;6.50;;;;;;;22.42;96.23;99013.19;6328254;28;20051;-71
2023/07/02 05:43:36;;;;;;;10.87;7.00;;;;;;;22.28;95.83;99016.81;6346460;28;20433;-71
2023/07/02 05:46:39;;;;;;;11.17;6.63;;;;;;;22.49;96.14;99026.56;6328124;28;20048;-70
2023/07/02 05:49:42;;;;;;;9.10;6.45;;;;;;;22.45;95.28;99030.63;6328052;28;20047;-70
2023/07/02 05:52:43;;;;;;;10.13;6.72;;;;;;;22.70;94.73;99031.75;6338468;28;20559;-71
2023/07/02 05:55:44;;;;;;;11.23;6.50;;;;;;;22.84;94.75;99032.66;6323234;28;20048;-72
2023/07/02 05:58:46;;;;;;;8.13;5.77;;;;;;;23.04;92.71;99042.56;6324112;28;20044;-71
2023/07/02 06:01:47;;;;;;;9.23;6.15;;;;;;;23.15;91.32;99041.19;6320582;28;20048;-71
2023/07/02 06:04:50;;;;;;;9.73;6.30;;;;;;;23.17;90.58;99044.47;6347045;28;20059;-72
2023/07/02 06:07:50;;;;;;;9.63;6.03;;;;;;;23.08;89.64;99039.34;6337516;28;20109;-71
2023/07/02 06:10:54;;;;;;;7.23;5.30;;;;;;;23.28;88.56;99046.56;6337917;27;20478;-71
2023/07/02 06:13:55;;;;;;;8.90;5.82;;;;;;;23.35;87.24;99047.41;6351787;27;20422;-71
2023/07/02 06:16:57;;;;;;;9.65;6.07;;;;;;;23.61;85.73;99040.47;6375698;27;20495;-71
2023/07/02 06:19:57;;;;;;;9.52;5.93;;;;;;;23.51;84.82;99038.19;6375183;27;20200;-71
2023/07/02 06:22:58;;;;;;;8.53;5.83;;;;;;;23.85;84.03;99042.59;6355852;27;20051;-71
2023/07/02 06:26:01;;;;;;;8.63;5.37;;;;;;;23.91;82.23;99040.94;6336782;27;20047;-70
2023/07/02 06:29:02;;;;;;;8.32;5.38;;;;;;;23.96;81.29;99045.66;6335566;28;20062;-70
2023/07/02 06:32:03;;;;;;;7.10;5.30;;;;;;;23.99;80.03;99039.91;6311405;28;20044;-71
2023/07/02 06:35:06;;;;;;;8.10;4.93;;;;;;;24.11;79.45;99039.09;6332984;27;20047;-70
2023/07/02 06:38:06;;;;;;;6.35;5.03;;;;;;;24.24;79.91;99040.13;6350341;28;20051;-71
2023/07/02 06:41:07;;;;;;;6.13;4.53;;;;;;;24.23;78.78;99038.47;6332132;28;20054;-72
2023/07/02 06:44:10;;;;;;;7.90;5.10;;;;;;;24.28;78.10;99030.69;6331486;28;20058;-72
2023/07/02 06:47:11;;;;;;;6.35;4.90;;;;;;;24.56;79.65;99042.94;6349658;27;20617;-71
2023/07/02 06:50:11;;;;;;;9.93;5.53;;;;;;;24.46;77.27;99038.00;6332076;27;20047;-72
2023/07/02 06:53:12;;;;;;;6.23;4.80;;;;;;;24.48;77.97;99035.94;6331507;28;20047;-71
2023/07/02 06:56:13;;;;;;;8.10;4.68;;;;;;;24.49;79.72;99043.78;6321637;28;20462;-72
2023/07/02 06:59:22;;;;;;;5.93;4.83;;;;;;;24.66;77.16;99046.81;6327419;27;20046;-72
2023/07/02 07:02:22;;;;;;;7.15;5.10;;;;;;;24.67;76.80;99045.00;6330417;28;20052;-71
2023/07/02 07:05:26;;;;;;;6.47;4.93;;;;;;;24.64;76.80;99046.19;6341125;27;20051;-71
2023/07/02 07:08:27;;;;;;;7.50;5.05;;;;;;;24.80;78.53;99049.47;6343763;28;20054;-72
2023/07/02 07:11:27;;;;;;;7.00;4.63;;;;;;;24.80;75.23;99050.25;6364885;27;20123;-72
2023/07/02 07:14:28;;;;;;;6.53;4.87;;;;;;;24.62;75.51;99055.44;6329437;28;20472;-72
2023/07/02 07:17:29;;;;;;;8.83;4.43;;;;;;;24.74;73.34;99053.78;6329382;28;20058;-72
2023/07/02 07:20:31;;;;;;;7.17;4.77;;;;;;;24.85;73.89;99069.16;6331459;27;20057;-70
2023/07/02 07:23:31;;;;;;;7.50;4.60;;;;;;;24.86;73.11;99060.09;6348282;28;20054;-71
2023/07/02 07:26:32;;;;;;;6.63;5.03;;;;;;;24.92;73.88;99067.25;6346082;27;20444;-72
2023/07/02 07:29:33;;;;;;;6.03;4.80;;;;;;;25.02;76.15;99066.81;6373566;27;20514;-72
2023/07/02 07:32:33;;;;;;;6.50;4.83;;;;;;;25.03;74.09;99075.63;6364077;27;20498;-72
2023/07/02 07:35:34;;;;;;;5.33;4.60;;;;;;;25.19;74.86;99077.81;6330877;28;20395;-72
2023/07/02 07:38:35;;;;;;;6.90;4.30;;;;;;;25.30;72.80;99068.34;6340597;27;20522;-72
2023/07/02 07:41:35;;;;;;;4.70;3.90;;;;;;;25.17;72.20;99079.88;6344415;28;20456;-72
2023/07/02 07:44:36;;;;;;;7.40;4.50;;;;;;;25.21;71.56;99085.66;6326222;27;20058;-72
2023/07/02 07:47:37;;;;;;;6.00;4.10;;;;;;;24.97;71.24;99085.28;6330205;28;20135;-72
2023/07/02 07:50:38;;;;;;;7.88;4.53;;;;;;;25.03;72.14;99070.31;6317120;28;20396;-71
2023/07/02 07:53:39;;;;;;;6.27;4.03;;;;;;;25.20;71.93;99071.44;6322793;28;20052;-71
2023/07/02 07:56:40;;;;;;;9.40;4.83;;;;;;;25.27;73.02;99077.63;6322399;28;20070;-71
2023/07/02 07:59:43;;;;;;;6.37;4.60;;;;;;;25.38;72.48;99081.47;6304333;28;20059;-71
2023/07/02 08:02:48;;;;;;;7.78;4.68;;;;;;;25.26;72.01;99081.31;6321111;28;20467;-71
2023/07/02 08:05:48;;;;;;;6.20;3.92;;;;;;;25.48;71.00;99075.66;6303694;28;20048;-71
2023/07/02 08:08:49;;;;;;;7.13;4.30;;;;;;;25.65;70.66;99083.97;6303999;28;20348;-70
2023/07/02 08:11:50;;;;;;;4.57;4.07;;;;;;;25.55;68.56;99081.75;6303752;28;20051;-71
2023/07/02 08:14:51;;;;;;;8.32;4.10;;;;;;;25.69;68.79;99085.19;6322214;28;20048;-72
2023/07/02 08:17:54;;;;;;;6.57;3.97;;;;;;;25.67;66.58;99076.56;6303600;28;20452;-71
2023/07/02 08:20:57;;;;;;;7.68;4.80;;;;;;;25.74;70.00;99080.03;6303092;28;20400;-71
2023/07/02 08:23:58;;;;;;;7.45;4.10;;;;;;;25.98;67.89;99088.31;6303736;28;20048;-72
2023/07/02 08:27:01;;;;;;;6.85;4.53;;;;;;;26.31;66.72;99082.66;6321438;28;20048;-71
2023/07/02 08:30:04;;;;;;;5.97;4.15;;;;;;;26.20;66.25;99084.22;6321431;28;20075;-71
2023/07/02 08:33:05;;;;;;;5.82;4.45;;;;;;;27.00;64.91;99083.44;6321369;28;20101;-72
2023/07/02 08:36:05;;;;;;;7.47;4.15;;;;;;;27.73;61.56;99079.78;6303299;28;20122;-71
2023/07/02 08:39:06;;;;;;;5.53;3.40;;;;;;;27.93;58.46;99082.19;6303204;28;20059;-71
2023/07/02 08:42:07;;;;;;;5.05;3.75;;;;;;;28.09;60.41;99080.72;6303193;28;20048;-71
2023/07/02 08:45:09;;;;;;;4.50;3.70;;;;;;;28.45;58.40;99081.53;6321297;28;20048;-72
2023/07/02 08:48:10;;;;;;;5.57;3.05;;;;;;;28.35;56.29;99078.63;6321388;28;20044;-71
2023/07/02 08:51:14;;;;;;;4.28;3.20;;;;;;;28.73;58.42;99085.41;6303264;28;20044;-72
2023/07/02 08:54:17;;;;;;;5.22;4.10;;;;;;;28.84;59.25;99081.06;6302940;28;20187;-71
2023/07/02 08:57:18;;;;;;;4.40;3.67;;;;;;;28.71;59.17;99084.81;6321140;28;20101;-72
2023/07/02 09:00:19;;;;;;;6.88;4.40;;;;;;;28.11;60.08;99083.97;6302948;28;20415;-71
2023/07/02 09:03:20;;;;;;;5.47;4.13;;;;;;;27.98;61.41;99084.19;6303046;28;20056;-71
2023/07/02 09:06:21;;;;;;;;;;;;;;;27.68;61.93;99085.03;6303372;28;20137;-71
2023/07/02 09:09:22;;;;;;;5.93;4.43;;;;;;;27.71;62.17;99087.25;6303080;28;19924;-71
2023/07/02 09:12:27;;;;;;;6.05;4.60;;;;;;;28.45;61.19;99088.78;6320883;28;20051;-73
2023/07/02 09:15:35;;;;;;;8.93;4.53;;;;;;;28.65;61.09;99083.06;6302736;28;20572;-71
2023/07/02 09:18:36;;;;;;;5.32;4.05;;;;;;;28.94;58.80;99090.13;6320605;28;20056;-72
2023/07/02 09:22:01;;;;;;;5.72;4.25;;;;;;;29.17;59.17;99084.97;6302922;28;20059;-71
2023/07/02 09:25:02;;;;;;;7.78;4.35;;;;;;;29.13;58.95;99085.44;6320876;28;20052;-72
2023/07/02 09:28:21;;;;;;;4.75;3.47;;;;;;;29.18;55.40;99090.13;6302252;28;20090;-71
2023/07/02 09:31:21;;;;;;;5.03;3.80;;;;;;;28.94;53.53;99089.31;6302493;28;20044;-71
2023/07/02 09:34:32;;;;;;;5.15;3.67;;;;;;;29.14;53.45;99094.34;6305280;28;20662;-71
2023/07/02 09:37:33;;;;;;;3.80;3.40;;;;;;;29.31;55.31;99103.25;6307488;28;20106;-71
2023/07/02 09:40:44;;;;;;;4.80;3.47;;;;;;;29.25;54.20;99095.34;6307564;28;20453;-71
2023/07/02 09:43:44;;;;;;;4.18;3.70;;;;;;;29.08;53.97;99097.94;6307385;28;20040;-71
2023/07/02 09:47:06;;;;;;;4.95;3.58;;;;;;;29.32;53.86;99104.06;6325462;28;20260;-71
2023/07/02 09:50:08;;;;;;;4.22;3.72;;;;;;;29.64;52.80;99099.03;6306932;28;20060;-71
2023/07/02 09:53:09;;;;;;;4.55;3.47;;;;;;;29.35;52.78;99106.28;6325316;28;20044;-71
2023/07/02 09:56:10;;;;;;;4.40;3.72;;;;;;;29.61;53.79;99102.22;6306945;28;20044;-72
2023/07/02 09:59:11;;;;;;;4.38;3.80;;;;;;;29.92;53.19;99100.09;6325224;28;20073;-72
2023/07/02 10:02:13;;;;;;;3.83;3.25;;;;;;;29.98;52.84;99095.59;6306632;28;20052;-71
2023/07/02 10:05:30;;;;;;;4.82;3.40;;;;;;;29.93;52.85;99096.31;6307073;28;20083;-72
2023/07/02 10:08:31;;;;;;;6.43;3.83;;;;;;;29.80;52.90;99086.69;6306708;28;20093;-71
2023/07/02 10:11:35;;;;;;;4.03;3.60;;;;;;;30.01;54.02;99084.34;6324921;28;20381;-72
2023/07/02 10:14:43;;;;;;;6.20;3.92;;;;;;;29.77;50.97;99092.53;6324709;28;20054;-72
2023/07/02 10:17:58;;;;;;;5.00;4.10;;;;;;;30.25;52.23;99093.88;6324605;28;20137;-72
2023/07/02 10:20:58;;;;;;;8.23;3.88;;;;;;;30.32;51.06;99088.34;6324472;28;20135;-72
2023/07/02 10:24:09;;;;;;;4.85;3.47;;;;;;;30.24;48.57;99086.84;6324749;28;20415;-72
2023/07/02 10:27:11;;;;;;;4.45;3.60;;;;;;;30.53;49.36;99084.06;6306269;28;20459;-72
2023/07/02 10:30:12;;;;;;;3.83;3.42;;;;;;;30.81;47.74;99076.91;6306135;28;20530;-71
2023/07/02 10:33:17;;;;;;;4.72;3.53;;;;;;;31.02;46.25;99072.63;6306481;28;20044;-72
2023/07/02 10:36:24;;;;;;;7.40;3.63;;;;;;;30.70;48.04;99067.88;6324156;28;20495;-71
2023/07/02 10:39:26;;;;;;;4.22;3.03;;;;;;;30.59;48.62;99063.44;6306127;28;20058;-72
2023/07/02 10:42:27;;;;;;;5.80;3.40;;;;;;;30.85;46.69;99070.78;6323791;28;20397;-71
2023/07/02 10:45:32;;;;;;;4.50;3.22;;;;;;;30.95;45.96;99055.81;6305639;28;20047;-72
2023/07/02 10:48:33;;;;;;;4.20;3.33;;;;;;;31.02;45.98;99051.06;6323795;28;20055;-71
2023/07/02 10:51:34;;;;;;;5.53;3.25;;;;;;;30.98;45.54;99050.75;6305857;28;20044;-71
2023/07/02 10:54:45;;;;;;;4.70;3.25;;;;;;;31.26;46.73;99055.13;6305681;28;20047;-72
2023/07/02 10:57:47;;;;;;;6.90;3.47;;;;;;;31.14;44.86;99046.38;6305672;28;20463;-71
2023/07/02 11:00:50;;;;;;;3.53;3.17;;;;;;;31.57;45.63;99041.13;6305211;28;20182;-72
2023/07/02 11:04:05;;;;;;;3.83;2.60;;;;;;;32.05;44.33;99034.00;6323741;28;20051;-71
2023/07/02 11:07:06;;;;;;;4.38;3.17;;;;;;;31.86;44.59;99042.47;6323563;28;20059;-71
2023/07/02 11:10:09;;;;;;;4.78;3.55;;;;;;;31.28;45.80;99036.00;6323503;28;20048;-72
2023/07/02 11:13:17;;;;;;;4.68;3.10;;;;;;;31.68;47.85;99029.38;6323504;28;20051;-72
2023/07/02 11:16:29;;;;;;;3.40;2.72;;;;;;;31.51;44.34;99027.63;6305459;28;20140;-72
2023/07/02 11:19:29;;;;;;;6.25;3.20;;;;;;;31.80;44.41;99024.63;6322991;28;20450;-72
2023/07/02 11:22:32;;;;;;;6.35;3.03;;;;;;;31.65;46.69;99019.94;6305241;28;20055;-72
2023/07/02 11:25:33;;;;;;;4.30;2.90;;;;;;;31.96;45.81;99016.63;6304952;28;20622;-72
2023/07/02 11:28:37;;;;;;;3.25;2.78;;;;;;;31.73;43.67;99016.78;6305184;28;20044;-72
2023/07/02 11:31:40;;;;;;;3.72;2.78;;;;;;;31.53;43.80;99003.13;6304697;28;20048;-71
2023/07/02 11:34:41;;;;;;;4.25;3.10;;;;;;;30.96;44.85;99003.59;6304568;28;20393;-72
2023/07/02 11:37:44;;;;;;;4.18;3.08;;;;;;;31.41;46.28;98999.75;6322837;28;20139;-71
2023/07/02 11:40:48;;;;;;;3.33;2.85;;;;;;;31.49;47.07;98994.72;6322345;28;20074;-72
2023/07/02 11:43:49;;;;;;;5.25;3.20;;;;;;;31.67;43.06;98993.53;6322538;28;20055;-72
2023/07/02 11:46:52;;;;;;;4.30;2.78;;;;;;;31.78;44.69;99004.41;6322732;28;20405;-71
2023/07/02 11:49:54;;;;;;;4.03;2.70;;;;;;;31.87;42.72;98997.44;6322394;28;20403;-72
2023/07/02 11:52:55;;;;;;;3.90;2.90;;;;;;;32.07;44.52;99003.00;6304244;28;20055;-71
2023/07/02 11:55:56;;;;;;;3.28;2.72;;;;;;;32.36;43.76;98996.41;6321558;28;20431;-73
2023/07/02 11:58:57;;;;;;;;;;;;;;;32.52;45.03;98998.13;6322774;28;20181;-72
2023/07/02 12:02:00;;;;;;;3.70;2.80;;;;;;;31.95;44.55;98998.84;6305047;28;20298;-71
2023/07/02 12:05:01;;;;;;;4.07;2.95;;;;;;;30.91;45.76;99007.06;6327714;28;20059;-72
2023/07/02 12:08:04;;;;;;;4.10;3.20;;;;;;;31.29;47.00;99008.78;6301735;28;20075;-71
2023/07/02 12:11:05;;;;;;;3.90;3.15;;;;;;;31.60;45.71;99011.78;6303652;28;20518;-72
2023/07/02 12:14:05;;;;;;;3.72;2.97;;;;;;;31.20;45.59;99020.31;6303765;28;20139;-72
2023/07/02 12:17:06;;;;;;;4.00;3.30;;;;;;;31.36;45.27;99013.16;6321459;28;20055;-72
2023/07/02 12:20:07;;;;;;;4.82;3.08;;;;;;;31.07;46.31;99010.72;6321642;28;20467;-72
2023/07/02 12:23:09;;;;;;;;;;;;;;;30.78;46.21;99004.72;6321698;28;20553;-72
2023/07/02 12:26:12;;;;;;;4.05;3.00;;;;;;;30.42;45.77;99007.78;6321485;28;19920;-72
2023/07/02 12:29:16;;;;;;;4.35;3.25;;;;;;;30.71;47.62;99005.72;6321410;28;20680;-72
2023/07/02 12:32:19;;;;;;;7.68;4.07;;;;;;;31.05;50.00;99002.06;6302927;28;20060;-72
2023/07/02 12:35:19;;;;;;;7.50;3.80;;;;;;;30.74;50.19;98996.31;6303204;28;20051;-72
2023/07/02 12:38:20;;;;;;;13.45;4.25;;;;;;;30.59;50.42;98988.88;6303340;28;20098;-72
2023/07/02 12:41:23;;;;;;;4.50;3.40;;;;;;;30.59;48.92;98991.56;6320897;28;20478;-71
2023/07/02 12:44:24;;;;;;;4.43;3.38;;;;;;;30.95;48.36;98988.50;6303089;28;20052;-72
2023/07/02 12:47:27;;;;;;;6.10;3.55;;;;;;;31.29;49.01;98992.63;6302807;28;20083;-72
2023/07/02 12:50:30;;;;;;;5.00;3.47;;;;;;;31.13;49.91;99007.00;6321222;28;20052;-71
2023/07/02 12:53:31;;;;;;;6.75;3.75;;;;;;;31.11;49.36;99007.28;6320944;28;20040;-73
2023/07/02 12:56:32;;;;;;;5.75;3.55;;;;;;;30.65;49.12;99006.72;6303099;28;20384;-72
2023/07/02 12:59:32;;;;;;;5.20;4.03;;;;;;;30.68;50.07;99008.91;6320989;28;20134;-72
2023/07/02 13:02:33;;;;;;;4.03;3.15;;;;;;;30.31;48.89;99012.22;6320717;28;20052;-72
2023/07/02 13:05:34;;;;;;;4.95;3.60;;;;;;;30.45;50.83;99007.25;6303012;28;20113;-72
2023/07/02 13:08:35;;;;;;;8.90;3.95;;;;;;;30.25;53.72;98999.72;6305935;28;20081;-72
2023/07/02 13:11:36;;;;;;;6.07;3.75;;;;;;;30.18;51.62;99001.75;6308012;28;20054;-71
2023/07/02 13:14:37;;;;;;;5.15;3.92;;;;;;;30.30;50.66;99004.38;6325622;28;20078;-71
2023/07/02 13:17:41;;;;;;;6.88;3.63;;;;;;;30.46;51.84;99008.91;6325927;28;20483;-71
2023/07/02 13:20:42;;;;;;;4.78;3.70;;;;;;;30.35;52.61;99011.69;6306617;28;20442;-71
2023/07/02 13:23:42;;;;;;;11.27;3.60;;;;;;;29.56;52.42;99018.78;6325594;28;20127;-71
2023/07/02 13:26:45;;;;;;;4.70;3.58;;;;;;;29.22;55.72;99031.34;6307353;28;20457;-72
2023/07/02 13:29:46;;;;;;;5.10;3.55;;;;;;;28.56;56.76;99050.44;6325653;28;20048;-72
2023/07/02 13:32:47;;;;;;;5.97;3.70;;;;;;;27.67;56.52;99048.53;6307601;28;20048;-72
2023/07/02 13:35:47;;;;;;;5.25;3.78;;;;;;;27.32;58.99;99048.44;6307476;28;20048;-72
2023/07/02 13:38:48;;;;;;;10.70;4.18;;;;;;;26.98;60.21;99053.41;6325433;28;20052;-71
2023/07/02 13:41:50;;;;;;;6.38;3.67;;;;;;;26.57;71.72;99054.88;6306854;28;20126;-71
2023/07/02 13:44:51;;;;;;;8.90;4.50;;;;;;;26.25;77.02;99056.81;6306876;28;20514;-72
2023/07/02 13:47:51;;;;;;;11.57;4.82;;;;;;;26.05;81.90;99047.13;6307044;28;20044;-72
2023/07/02 13:50:52;;;;;;;7.40;4.35;;;;;;;25.98;80.79;99056.22;6324935;28;20086;-73
2023/07/02 13:53:53;;;;;;;6.60;3.95;;;;;;;26.07;80.76;99047.72;6324686;28;20499;-73
2023/07/02 13:56:56;;;;;;;7.73;4.47;;;;;;;25.83;80.07;99033.28;6324743;28;20052;-73
2023/07/02 13:59:57;;;;;;;6.88;4.40;;;;;;;25.89;83.38;99031.63;6306665;28;20359;-73
2023/07/02 14:02:58;;;;;;;6.20;3.42;;;;;;;26.18;81.48;99019.47;6306293;28;20044;-73
2023/07/02 14:05:59;;;;;;;6.72;4.03;;;;;;;25.90;82.53;99012.72;6324520;28;20083;-72
2023/07/02 14:09:00;;;;;;;5.53;3.85;;;;;;;26.20;81.01;99016.56;6306298;28;20055;-73
2023/07/02 14:12:00;;;;;;;6.80;3.35;;;;;;;26.41;80.64;99012.66;6324432;28;20048;-74
2023/07/02 14:15:01;;;;;;;6.43;3.20;;;;;;;26.60;75.59;99000.13;6306431;28;20503;-72